createdAt,value
2022-08-26T00:01:54.387Z,71.40
2022-08-26T00:04:25.474Z,71.40
2022-08-26T00:06:55.080Z,71.50
2022-08-26T00:09:24.937Z,72.00
2022-08-26T00:11:54.764Z,72.70
2022-08-26T00:14:27.105Z,72.90
2022-08-26T00:16:58.881Z,73.00
2022-08-26T00:19:27.251Z,73.20
2022-08-26T00:21:54.831Z,73.50
2022-08-26T00:24:23.881Z,73.70
2022-08-26T00:26:51.571Z,73.70
2022-08-26T00:29:21.369Z,73.90
2022-08-26T00:31:51.721Z,74.20
2022-08-26T00:34:19.290Z,74.50
2022-08-26T00:36:51.805Z,74.90
2022-08-26T00:39:20.424Z,75.00
2022-08-26T00:41:48.115Z,75.20
2022-08-26T00:44:15.602Z,75.30
2022-08-26T00:46:48.412Z,75.40
2022-08-26T00:49:42.293Z,75.50
2022-08-26T00:52:16.037Z,75.70
2022-08-26T00:54:50.738Z,75.80
2022-08-26T00:57:20.357Z,76.10
2022-08-26T00:59:53.069Z,76.10
2022-08-26T01:02:21.806Z,76.20
2022-08-26T01:04:55.799Z,76.10
2022-08-26T01:07:26.433Z,76.00
2022-08-26T01:09:55.748Z,76.00
2022-08-26T01:12:25.187Z,75.60
2022-08-26T01:14:53.480Z,75.20
2022-08-26T01:17:20.976Z,73.60
2022-08-26T01:20:12.285Z,73.20
2022-08-26T01:23:03.583Z,73.00
2022-08-26T01:25:34.012Z,73.00
2022-08-26T01:28:06.320Z,73.10
2022-08-26T01:30:35.678Z,72.80
2022-08-26T01:33:06.938Z,72.80
2022-08-26T01:35:34.425Z,72.60
2022-08-26T01:38:02.438Z,72.30
2022-08-26T01:40:37.491Z,72.50
2022-08-26T01:43:08.593Z,72.80
2022-08-26T01:45:37.595Z,73.00
2022-08-26T01:48:11.782Z,73.20
2022-08-26T01:50:39.679Z,73.50
2022-08-26T01:53:11.518Z,73.80
2022-08-26T01:55:43.111Z,73.80
2022-08-26T01:58:18.347Z,74.10
2022-08-26T02:00:47.522Z,74.20
2022-08-26T02:03:18.386Z,74.40
2022-08-26T02:05:58.816Z,74.60
2022-08-26T02:08:39.564Z,74.90
2022-08-26T02:11:07.229Z,74.70
2022-08-26T02:13:39.265Z,74.60
2022-08-26T02:16:08.479Z,74.60
2022-08-26T02:18:38.903Z,74.60
2022-08-26T02:21:07.487Z,74.80
2022-08-26T02:23:35.991Z,74.90
2022-08-26T02:26:09.774Z,75.10
2022-08-26T02:28:43.111Z,74.60
2022-08-26T02:31:10.603Z,74.60
2022-08-26T02:33:37.933Z,74.70
2022-08-26T02:36:12.084Z,75.20
2022-08-26T02:38:39.513Z,74.90
2022-08-26T02:41:08.072Z,74.90
2022-08-26T02:43:35.422Z,74.90
2022-08-26T02:46:02.750Z,75.00
2022-08-26T02:48:30.954Z,75.40
2022-08-26T02:51:02.077Z,75.40
2022-08-26T02:53:32.036Z,75.20
2022-08-26T02:56:03.442Z,75.10
2022-08-26T02:58:31.959Z,75.00
2022-08-26T03:01:00.234Z,75.10
2022-08-26T03:03:29.193Z,75.20
2022-08-26T03:05:58.062Z,75.30
2022-08-26T03:08:25.395Z,75.40
2022-08-26T03:10:53.145Z,75.50
2022-08-26T03:13:20.400Z,75.80
2022-08-26T03:15:47.879Z,75.80
2022-08-26T03:18:16.274Z,75.80
2022-08-26T03:20:44.541Z,75.80
2022-08-26T03:23:12.644Z,75.90
2022-08-26T03:25:42.443Z,75.80
2022-08-26T03:28:09.976Z,76.10
2022-08-26T03:30:45.001Z,76.20
2022-08-26T03:33:14.017Z,76.50
2022-08-26T03:35:43.838Z,76.10
2022-08-26T03:38:11.875Z,75.80
2022-08-26T03:40:39.947Z,75.50
2022-08-26T03:43:09.653Z,75.40
2022-08-26T03:45:38.257Z,75.20
2022-08-26T03:48:06.220Z,75.00
2022-08-26T03:50:35.873Z,74.90
2022-08-26T03:53:04.657Z,75.00
2022-08-26T03:55:34.812Z,75.20
2022-08-26T03:58:02.378Z,75.10
2022-08-26T04:00:30.169Z,75.00
2022-08-26T04:02:57.691Z,75.10
2022-08-26T04:05:25.759Z,75.20
2022-08-26T04:07:53.204Z,75.10
2022-08-26T04:10:29.019Z,74.90
2022-08-26T04:12:58.895Z,74.50
2022-08-26T04:15:27.459Z,74.10
2022-08-26T04:17:55.988Z,73.50
2022-08-26T04:20:25.850Z,73.20
2022-08-26T04:22:53.479Z,73.20
2022-08-26T04:25:21.456Z,73.30
2022-08-26T04:27:48.705Z,73.10
2022-08-26T04:30:18.078Z,72.60
2022-08-26T04:32:45.771Z,72.50
2022-08-26T04:35:13.020Z,72.80
2022-08-26T04:37:43.047Z,73.10
2022-08-26T04:40:10.953Z,73.10
2022-08-26T04:42:41.071Z,72.90
2022-08-26T04:45:09.973Z,72.90
2022-08-26T04:47:37.861Z,72.60
2022-08-26T04:50:07.465Z,72.40
2022-08-26T04:52:36.466Z,72.10
2022-08-26T04:55:06.641Z,71.80
2022-08-26T04:57:36.009Z,71.90
2022-08-26T05:00:07.057Z,71.70
2022-08-26T05:02:34.578Z,71.70
2022-08-26T05:05:02.405Z,71.80
2022-08-26T05:07:31.406Z,71.30
2022-08-26T05:09:59.638Z,70.90
2022-08-26T05:12:28.733Z,71.10
2022-08-26T05:14:58.041Z,71.20
2022-08-26T05:17:26.926Z,71.40
2022-08-26T05:19:55.464Z,71.50
2022-08-26T05:22:22.849Z,71.20
2022-08-26T05:24:50.307Z,71.30
2022-08-26T05:27:17.693Z,71.20
2022-08-26T05:29:45.127Z,71.20
2022-08-26T05:32:12.675Z,71.10
2022-08-26T05:34:40.047Z,70.90
2022-08-26T05:37:10.256Z,70.80
2022-08-26T05:39:38.641Z,70.60
2022-08-26T05:42:11.056Z,70.40
2022-08-26T05:44:55.471Z,70.40
2022-08-26T05:47:24.465Z,70.10
2022-08-26T05:49:52.053Z,70.00
2022-08-26T05:52:20.226Z,70.10
2022-08-26T05:54:47.887Z,70.20
2022-08-26T05:57:15.815Z,70.20
2022-08-26T05:59:43.610Z,69.90
2022-08-26T06:02:11.003Z,69.70
2022-08-26T06:04:39.649Z,69.70
2022-08-26T06:07:07.432Z,69.20
2022-08-26T06:09:40.160Z,68.50
2022-08-26T06:12:07.840Z,68.70
2022-08-26T06:14:36.260Z,68.70
2022-08-26T06:17:04.475Z,68.00
2022-08-26T06:19:34.621Z,66.90
2022-08-26T06:22:23.543Z,65.60
2022-08-26T06:25:09.825Z,64.80
2022-08-26T06:27:37.950Z,64.50
2022-08-26T06:30:06.852Z,63.70
2022-08-26T06:32:34.566Z,63.00
2022-08-26T06:35:01.931Z,62.70
2022-08-26T06:37:29.508Z,61.40
2022-08-26T06:39:57.105Z,61.70
2022-08-26T06:42:25.408Z,61.30
2022-08-26T06:44:54.302Z,60.90
2022-08-26T06:47:21.606Z,60.20
2022-08-26T06:49:50.392Z,60.00
2022-08-26T06:52:22.931Z,60.40
2022-08-26T06:54:53.544Z,59.40
2022-08-26T06:57:24.275Z,59.30
2022-08-26T06:59:51.888Z,59.10
2022-08-26T07:02:24.157Z,58.80
2022-08-26T07:04:56.844Z,58.50
2022-08-26T07:07:24.869Z,57.90
2022-08-26T07:09:54.947Z,57.70
2022-08-26T07:12:22.490Z,56.80
2022-08-26T07:14:53.218Z,56.50
2022-08-26T07:17:21.632Z,56.40
2022-08-26T07:19:54.520Z,56.50
2022-08-26T07:22:22.048Z,55.70
2022-08-26T07:24:51.870Z,56.10
2022-08-26T07:27:19.647Z,55.50
2022-08-26T07:29:48.933Z,54.90
2022-08-26T07:32:20.049Z,54.30
2022-08-26T07:34:52.262Z,54.50
2022-08-26T07:37:23.297Z,54.20
2022-08-26T07:39:51.653Z,54.00
2022-08-26T07:42:20.837Z,53.70
2022-08-26T07:44:49.032Z,54.10
2022-08-26T07:47:25.265Z,54.70
2022-08-26T07:49:55.601Z,53.60
2022-08-26T07:52:26.584Z,53.90
2022-08-26T07:54:54.403Z,53.70
2022-08-26T07:57:24.264Z,53.00
2022-08-26T07:59:52.486Z,53.10
2022-08-26T08:02:24.248Z,52.80
2022-08-26T08:04:51.987Z,52.60
2022-08-26T08:07:19.426Z,52.70
2022-08-26T08:09:49.704Z,52.30
2022-08-26T08:12:18.154Z,52.60
2022-08-26T08:14:47.134Z,51.70
2022-08-26T08:17:16.166Z,51.40
2022-08-26T08:19:43.610Z,52.30
2022-08-26T08:22:17.992Z,51.10
2022-08-26T08:24:50.038Z,51.00
2022-08-26T08:27:23.698Z,51.40
2022-08-26T08:29:54.902Z,50.30
2022-08-26T08:32:23.585Z,50.00
2022-08-26T08:34:50.896Z,49.80
2022-08-26T08:37:18.218Z,50.40
2022-08-26T08:39:45.642Z,49.70
2022-08-26T08:42:45.846Z,48.90
2022-08-26T08:45:36.597Z,49.40
2022-08-26T08:48:20.117Z,48.80
2022-08-26T08:50:52.873Z,48.70
2022-08-26T08:53:37.127Z,48.50
2022-08-26T08:56:35.476Z,48.20
2022-08-26T08:59:24.684Z,47.70
2022-08-26T09:01:52.583Z,48.30
2022-08-26T09:04:58.168Z,48.20
2022-08-26T09:07:44.614Z,49.90
2022-08-26T09:10:26.349Z,49.90
2022-08-26T09:12:53.793Z,50.40
2022-08-26T09:15:43.838Z,49.50
2022-08-26T09:18:22.299Z,51.00
2022-08-26T09:20:56.922Z,51.60
2022-08-26T09:23:25.400Z,52.00
2022-08-26T09:26:03.625Z,51.40
2022-08-26T09:28:32.153Z,52.30
2022-08-26T09:31:22.222Z,52.40
2022-08-26T09:34:07.064Z,53.40
2022-08-26T09:36:41.511Z,53.50
2022-08-26T09:39:39.205Z,54.40
2022-08-26T09:42:11.822Z,53.20
2022-08-26T09:44:59.580Z,54.20
2022-08-26T09:47:31.601Z,54.30
2022-08-26T09:50:21.051Z,54.00
2022-08-26T09:53:14.619Z,53.90
2022-08-26T09:55:47.870Z,54.30
2022-08-26T09:58:35.337Z,54.80
2022-08-26T10:01:08.733Z,55.40
2022-08-26T10:03:38.466Z,55.50
2022-08-26T10:06:24.154Z,55.60
2022-08-26T10:08:55.907Z,55.70
2022-08-26T10:11:45.871Z,55.70
2022-08-26T10:14:30.244Z,56.20
2022-08-26T10:17:02.634Z,55.80
2022-08-26T10:19:56.802Z,55.30
2022-08-26T10:22:34.412Z,56.40
2022-08-26T10:25:06.871Z,57.40
2022-08-26T10:27:49.738Z,56.30
2022-08-26T10:30:24.071Z,56.40
2022-08-26T10:32:57.271Z,55.80
2022-08-26T10:35:27.129Z,56.00
2022-08-26T10:38:00.630Z,55.70
2022-08-26T10:40:48.923Z,55.10
2022-08-26T10:43:25.688Z,54.50
2022-08-26T10:45:57.290Z,54.80
2022-08-26T10:49:03.219Z,55.00
2022-08-26T10:51:38.795Z,54.00
2022-08-26T10:54:21.725Z,52.80
2022-08-26T10:57:09.616Z,52.70
2022-08-26T10:59:45.312Z,52.30
2022-08-26T11:02:24.195Z,51.60
2022-08-26T11:04:55.381Z,51.10
2022-08-26T11:07:40.634Z,49.90
2022-08-26T11:10:22.659Z,49.90
2022-08-26T11:12:57.894Z,49.60
2022-08-26T11:15:26.225Z,49.10
2022-08-26T11:17:55.821Z,47.90
2022-08-26T11:20:23.844Z,48.30
2022-08-26T11:22:53.949Z,48.10
2022-08-26T11:25:29.712Z,48.00
2022-08-26T11:28:01.128Z,48.70
2022-08-26T11:30:39.394Z,47.20
2022-08-26T11:33:09.265Z,46.80
2022-08-26T11:35:42.826Z,46.40
2022-08-26T11:38:29.008Z,46.00
2022-08-26T11:41:17.587Z,45.00
2022-08-26T11:43:47.718Z,45.20
2022-08-26T11:46:25.916Z,46.10
2022-08-26T11:49:06.057Z,46.20
2022-08-26T11:51:40.424Z,47.60
2022-08-26T11:54:15.967Z,46.80
2022-08-26T11:56:46.935Z,47.30
2022-08-26T12:02:14.332Z,47.20
2022-08-26T12:04:46.455Z,46.90
2022-08-26T12:07:14.226Z,47.20
2022-08-26T12:09:54.991Z,48.50
2022-08-26T12:12:34.954Z,49.00
2022-08-26T12:15:19.192Z,51.70
2022-08-26T12:17:51.673Z,52.60
2022-08-26T12:20:49.376Z,54.30
2022-08-26T12:23:29.418Z,55.30
2022-08-26T12:26:31.362Z,55.30
2022-08-26T12:29:28.332Z,55.80
2022-08-26T12:32:31.822Z,54.80
2022-08-26T12:37:37.659Z,51.30
2022-08-26T12:40:36.383Z,50.00
2022-08-26T12:43:06.700Z,48.90
2022-08-26T12:45:39.136Z,49.40
2022-08-26T12:48:12.431Z,49.40
2022-08-26T12:50:53.400Z,48.70
2022-08-26T12:53:45.193Z,47.60
2022-08-26T12:57:00.630Z,46.50
2022-08-26T12:59:31.155Z,46.20
2022-08-26T13:01:58.734Z,46.50
2022-08-26T13:04:37.857Z,45.50
2022-08-26T13:07:25.409Z,45.10
2022-08-26T13:09:56.263Z,45.60
2022-08-26T13:12:27.080Z,45.70
2022-08-26T13:14:54.889Z,45.90
2022-08-26T13:17:22.385Z,45.30
2022-08-26T13:19:49.867Z,45.10
2022-08-26T13:22:22.603Z,46.00
2022-08-26T13:24:50.843Z,45.70
2022-08-26T13:27:20.714Z,47.50
2022-08-26T13:29:48.127Z,48.60
2022-08-26T13:32:15.617Z,49.50
2022-08-26T13:34:43.284Z,50.60
2022-08-26T13:37:10.536Z,50.80
2022-08-26T13:39:38.390Z,51.70
2022-08-26T13:42:05.939Z,51.40
2022-08-26T13:44:33.646Z,52.30
2022-08-26T13:47:01.006Z,53.20
2022-08-26T13:49:28.394Z,53.80
2022-08-26T13:51:55.790Z,55.00
2022-08-26T13:54:23.238Z,55.60
2022-08-26T13:56:50.694Z,56.00
2022-08-26T13:59:18.355Z,55.90
2022-08-26T14:01:45.835Z,57.50
2022-08-26T14:04:13.371Z,57.10
2022-08-26T14:06:41.582Z,56.80
2022-08-26T14:09:08.929Z,57.70
2022-08-26T14:11:54.131Z,58.30
2022-08-26T14:14:22.660Z,59.60
2022-08-26T14:16:51.290Z,60.00
2022-08-26T14:19:28.646Z,60.30
2022-08-26T14:21:57.547Z,60.60
2022-08-26T14:24:25.276Z,60.20
2022-08-26T14:26:52.860Z,60.40
2022-08-26T14:29:20.253Z,60.10
2022-08-26T14:31:51.256Z,59.90
2022-08-26T14:34:18.707Z,60.10
2022-08-26T14:36:46.017Z,60.40
2022-08-26T14:39:14.506Z,61.30
2022-08-26T14:41:54.003Z,61.50
2022-08-26T14:44:31.794Z,61.60
2022-08-26T14:47:01.803Z,62.00
2022-08-26T14:49:31.830Z,62.00
2022-08-26T14:51:59.656Z,61.80
2022-08-26T14:54:27.159Z,61.90
2022-08-26T14:57:02.001Z,62.10
2022-08-26T14:59:41.873Z,62.40
2022-08-26T15:02:12.293Z,63.10
2022-08-26T15:04:42.376Z,63.10
2022-08-26T15:07:12.813Z,63.50
2022-08-26T15:09:40.534Z,63.60
2022-08-26T15:12:08.444Z,64.10
2022-08-26T15:14:36.337Z,63.80
2022-08-26T15:17:03.886Z,63.90
2022-08-26T15:19:31.334Z,64.20
2022-08-26T15:21:58.797Z,64.00
2022-08-26T15:24:28.977Z,63.30
2022-08-26T15:26:57.130Z,63.40
2022-08-26T15:29:24.667Z,62.80
2022-08-26T15:31:52.553Z,62.70
2022-08-26T15:34:24.806Z,62.90
2022-08-26T15:36:52.355Z,63.10
2022-08-26T15:39:20.565Z,62.70
2022-08-26T15:41:47.952Z,63.10
2022-08-26T15:44:17.156Z,63.80
2022-08-26T15:46:44.844Z,64.80
2022-08-26T15:49:17.780Z,65.20
2022-08-26T15:51:48.268Z,65.30
2022-08-26T15:54:17.846Z,65.60
2022-08-26T15:56:46.056Z,65.80
2022-08-26T15:59:15.961Z,65.80
2022-08-26T16:01:43.829Z,65.20
2022-08-26T16:04:11.780Z,65.40
2022-08-26T16:06:41.691Z,65.00
2022-08-26T16:09:09.763Z,64.80
2022-08-26T16:11:37.960Z,64.70
2022-08-26T16:14:06.232Z,64.30
2022-08-26T16:16:33.647Z,63.40
2022-08-26T16:19:05.516Z,63.30
2022-08-26T16:21:35.040Z,63.80
2022-08-26T16:24:03.548Z,64.00
2022-08-26T16:26:35.021Z,64.30
2022-08-26T16:29:05.553Z,64.60
2022-08-26T16:31:33.325Z,63.80
2022-08-26T16:34:00.602Z,64.10
2022-08-26T16:36:28.110Z,64.40
2022-08-26T16:38:56.674Z,64.40
2022-08-26T16:41:27.187Z,63.70
2022-08-26T16:43:55.341Z,63.90
2022-08-26T16:46:26.175Z,64.10
2022-08-26T16:48:56.340Z,64.40
2022-08-26T16:51:27.344Z,64.30
2022-08-26T16:53:56.469Z,64.20
2022-08-26T16:56:34.399Z,64.20
2022-08-26T16:59:05.619Z,64.10
2022-08-26T17:01:33.277Z,63.90
2022-08-26T17:04:00.834Z,63.90
2022-08-26T17:06:28.498Z,64.00
2022-08-26T17:08:56.757Z,64.20
2022-08-26T17:11:24.228Z,64.10
2022-08-26T17:13:51.825Z,64.40
2022-08-26T17:16:20.475Z,64.70
2022-08-26T17:18:51.063Z,64.80
2022-08-26T17:21:18.571Z,65.00
2022-08-26T17:23:46.204Z,65.00
2022-08-26T17:26:13.849Z,65.10
2022-08-26T17:28:41.389Z,65.20
2022-08-26T17:31:11.118Z,65.30
2022-08-26T17:33:39.280Z,65.50
2022-08-26T17:36:08.657Z,65.70
2022-08-26T17:38:38.248Z,66.00
2022-08-26T17:41:10.092Z,66.30
2022-08-26T17:43:38.526Z,66.70
2022-08-26T17:46:08.092Z,67.00
2022-08-26T17:48:40.340Z,67.30
2022-08-26T17:51:12.964Z,67.70
2022-08-26T17:53:41.532Z,68.00
2022-08-26T17:56:11.109Z,68.00
2022-08-26T17:58:39.124Z,68.20
2022-08-26T18:01:07.432Z,68.30
2022-08-26T18:03:35.371Z,68.30
2022-08-26T18:06:03.263Z,68.40
2022-08-26T18:08:30.846Z,68.50
2022-08-26T18:10:59.201Z,68.70
2022-08-26T18:13:26.667Z,68.80
2022-08-26T18:15:54.142Z,68.80
2022-08-26T18:18:22.599Z,68.90
2022-08-26T18:20:51.993Z,69.00
2022-08-26T18:23:31.479Z,69.20
2022-08-26T18:25:59.000Z,69.60
2022-08-26T18:28:26.411Z,69.90
2022-08-26T18:30:54.287Z,70.10
2022-08-26T18:33:24.911Z,70.20
2022-08-26T18:35:52.837Z,70.40
2022-08-26T18:38:20.240Z,70.60
2022-08-26T18:40:49.778Z,70.70
2022-08-26T18:43:17.605Z,70.90
2022-08-26T18:45:45.039Z,70.90
2022-08-26T18:48:12.889Z,71.00
2022-08-26T18:50:43.803Z,71.10
2022-08-26T18:53:13.387Z,71.00
2022-08-26T18:55:42.235Z,71.20
2022-08-26T18:58:09.721Z,71.20
2022-08-26T19:00:39.298Z,71.40
2022-08-26T19:03:08.318Z,71.50
2022-08-26T19:05:46.406Z,71.70
2022-08-26T19:08:14.546Z,71.80
2022-08-26T19:10:42.657Z,71.70
2022-08-26T19:13:10.123Z,71.70
2022-08-26T19:15:40.530Z,71.40
2022-08-26T19:18:09.068Z,71.60
2022-08-26T19:20:46.541Z,71.80
2022-08-26T19:23:31.455Z,71.70
2022-08-26T19:26:05.760Z,71.80
2022-08-26T19:28:34.949Z,71.70
2022-08-26T19:31:04.852Z,71.90
2022-08-26T19:33:33.630Z,72.00
2022-08-26T19:36:03.739Z,72.00
2022-08-26T19:38:34.328Z,72.20
2022-08-26T19:41:02.853Z,72.10
2022-08-26T19:43:30.417Z,71.90
2022-08-26T19:46:12.029Z,72.00
2022-08-26T19:48:44.172Z,72.00
2022-08-26T19:51:15.966Z,72.10
2022-08-26T19:53:45.851Z,72.20
2022-08-26T19:56:14.582Z,72.40
2022-08-26T19:58:42.172Z,72.30
2022-08-26T20:01:10.319Z,72.40
2022-08-26T20:03:38.260Z,72.60
2022-08-26T20:06:10.133Z,72.70
2022-08-26T20:08:40.738Z,72.70
2022-08-26T20:11:13.189Z,72.80
2022-08-26T20:13:42.165Z,73.30
2022-08-26T20:16:13.213Z,73.80
2022-08-26T20:19:00.804Z,74.00
2022-08-26T20:21:33.384Z,74.20
2022-08-26T20:24:06.001Z,74.30
2022-08-26T20:26:36.328Z,74.30
2022-08-26T20:29:07.779Z,74.30
2022-08-26T20:31:35.485Z,74.30
2022-08-26T20:34:03.787Z,74.40
2022-08-26T20:36:33.701Z,74.60
2022-08-26T20:39:01.234Z,74.60
2022-08-26T20:41:29.264Z,75.00
2022-08-26T20:44:06.271Z,75.20
2022-08-26T20:46:35.307Z,75.30
2022-08-26T20:49:04.179Z,75.30
2022-08-26T20:51:34.193Z,75.60
2022-08-26T20:54:01.998Z,75.70
2022-08-26T20:56:29.582Z,75.60
2022-08-26T20:58:59.723Z,75.90
2022-08-26T21:01:34.166Z,75.80
2022-08-26T21:04:04.312Z,76.10
2022-08-26T21:06:34.088Z,76.00
2022-08-26T21:09:03.491Z,76.10
2022-08-26T21:11:31.928Z,76.10
2022-08-26T21:14:16.197Z,76.30
2022-08-26T21:16:46.868Z,76.10
2022-08-26T21:19:18.209Z,76.10
2022-08-26T21:21:48.007Z,75.90
2022-08-26T21:24:16.407Z,75.50
2022-08-26T21:26:44.530Z,75.30
2022-08-26T21:29:13.756Z,75.30
2022-08-26T21:31:46.395Z,75.20
2022-08-26T21:34:17.311Z,75.20
2022-08-26T21:36:46.265Z,75.30
2022-08-26T21:39:14.183Z,75.30
2022-08-26T21:41:43.057Z,75.30
2022-08-26T21:44:15.012Z,75.30
2022-08-26T21:46:44.108Z,75.40
2022-08-26T21:49:13.713Z,75.30
2022-08-26T21:51:46.392Z,75.10
2022-08-26T21:54:14.772Z,74.90
2022-08-26T21:56:47.379Z,74.60
2022-08-26T21:59:17.603Z,74.60
2022-08-26T22:01:45.453Z,74.60
2022-08-26T22:04:13.121Z,74.50
2022-08-26T22:06:53.920Z,74.30
2022-08-26T22:09:25.196Z,74.00
2022-08-26T22:11:54.425Z,73.80
2022-08-26T22:14:30.194Z,73.70
2022-08-26T22:16:59.852Z,73.60
2022-08-26T22:19:27.934Z,73.70
2022-08-26T22:21:55.902Z,73.60
2022-08-26T22:24:25.894Z,73.60
2022-08-26T22:26:54.936Z,73.70
2022-08-26T22:29:23.190Z,73.60
2022-08-26T22:31:50.827Z,73.70
2022-08-26T22:34:19.873Z,73.70
2022-08-26T22:36:49.884Z,73.80
2022-08-26T22:39:24.209Z,73.80
2022-08-26T22:41:53.691Z,73.80
2022-08-26T22:44:22.436Z,73.80
2022-08-26T22:46:54.554Z,73.70
2022-08-26T22:49:22.304Z,73.50
2022-08-26T22:51:51.235Z,73.20
2022-08-26T22:54:19.897Z,73.40
2022-08-26T22:56:50.385Z,73.30
2022-08-26T22:59:18.431Z,73.50
2022-08-26T23:01:48.749Z,73.50
2022-08-26T23:04:16.778Z,73.50
2022-08-26T23:06:47.603Z,73.80
2022-08-26T23:09:18.573Z,73.90
2022-08-26T23:11:47.677Z,74.00
2022-08-26T23:14:17.225Z,74.10
2022-08-26T23:16:45.030Z,74.20
2022-08-26T23:19:14.125Z,74.30
2022-08-26T23:21:44.425Z,74.20
2022-08-26T23:24:12.336Z,74.40
2022-08-26T23:26:42.111Z,74.50
2022-08-26T23:29:11.915Z,74.70
2022-08-26T23:31:41.305Z,74.80
2022-08-26T23:34:27.575Z,74.80
2022-08-26T23:36:58.077Z,74.80
2022-08-26T23:39:25.994Z,75.00
2022-08-26T23:41:53.751Z,75.00
2022-08-26T23:44:21.713Z,75.10
2022-08-26T23:46:49.758Z,75.00
2022-08-26T23:49:17.233Z,74.90
2022-08-26T23:52:10.701Z,75.00
2022-08-26T23:54:40.161Z,74.90
2022-08-26T23:57:08.733Z,74.70
2022-08-26T23:59:38.360Z,74.60
